Time;durP1;ratioP1;P1;durP2;ratioP2;P2;SDS_P1;SDS_P2;PMS_P1;PMS_P2;Temp;Humidity;BMP_temperature;BMP_pressure;BME280_temperature;BME280_humidity;BME280_pressure;Samples;Min_cycle;Max_cycle;Signal;HPM_P1;HPM_P2
2024/01/04 00:02:13;;;;;;;16.58;2.38;;;11.10;95.00;;;;;;5108298;28;20332;-49
2024/01/04 00:04:41;;;;;;;15.48;2.17;;;11.10;95.00;;;;;;5091572;28;20058;-49
2024/01/04 00:07:07;;;;;;;11.20;1.95;;;11.10;95.00;;;;;;5126817;28;20028;-50
2024/01/04 00:09:32;;;;;;;10.05;2.10;;;11.10;95.00;;;;;;5108636;28;20034;-50
2024/01/04 00:11:58;;;;;;;13.75;1.75;;;11.10;95.10;;;;;;5126812;28;20460;-50
2024/01/04 00:14:24;;;;;;;13.02;2.50;;;11.10;95.20;;;;;;5126848;28;20036;-50
2024/01/04 00:16:49;;;;;;;7.72;1.63;;;11.00;95.10;;;;;;5126746;28;20502;-50
2024/01/04 00:19:15;;;;;;;10.35;1.67;;;11.00;95.20;;;;;;5108312;28;20039;-50
2024/01/04 00:21:40;;;;;;;8.05;1.58;;;11.00;95.20;;;;;;5108504;28;20035;-49
2024/01/04 00:24:06;;;;;;;12.80;1.70;;;11.00;95.30;;;;;;5126539;28;20028;-50
2024/01/04 00:26:32;;;;;;;9.90;1.73;;;11.00;95.40;;;;;;5126651;28;20084;-50
2024/01/04 00:28:58;;;;;;;7.68;1.40;;;10.90;95.50;;;;;;5108155;28;20027;-50
2024/01/04 00:31:24;;;;;;;9.50;1.77;;;11.00;95.60;;;;;;5108231;28;20039;-49
2024/01/04 00:33:50;;;;;;;6.15;1.80;;;10.90;95.70;;;;;;5108279;28;20184;-50
2024/01/04 00:36:15;;;;;;;6.05;1.67;;;10.90;95.80;;;;;;5091354;28;20043;-49
2024/01/04 00:38:41;;;;;;;6.55;1.10;;;10.90;95.90;;;;;;5108302;28;20061;-50
2024/01/04 00:41:07;;;;;;;6.32;1.73;;;10.90;95.90;;;;;;5108136;28;20059;-48
2024/01/04 00:43:33;;;;;;;7.60;1.58;;;10.90;96.00;;;;;;5127014;28;20084;-49
2024/01/04 00:45:59;;;;;;;4.78;1.25;;;10.90;96.10;;;;;;5108447;28;20047;-50
2024/01/04 00:48:24;;;;;;;4.32;0.90;;;10.80;96.20;;;;;;5108368;28;20032;-49
2024/01/04 00:50:50;;;;;;;4.28;1.40;;;10.80;96.20;;;;;;5126356;28;20080;-49
2024/01/04 00:53:16;;;;;;;7.57;1.77;;;10.80;96.20;;;;;;5127554;28;20039;-50
2024/01/04 00:55:41;;;;;;;7.95;1.20;;;10.80;96.30;;;;;;5130205;28;20036;-50
2024/01/04 00:58:07;;;;;;;8.68;1.35;;;10.80;96.40;;;;;;5130204;28;20039;-50
2024/01/04 01:00:32;;;;;;;5.38;1.33;;;10.80;96.40;;;;;;5129932;28;20032;-50
2024/01/04 01:02:59;;;;;;;5.90;1.08;;;10.70;96.40;;;;;;5111756;28;20028;-49
2024/01/04 01:05:24;;;;;;;4.82;1.50;;;10.70;96.40;;;;;;5111651;28;20031;-50
2024/01/04 01:07:50;;;;;;;8.95;1.27;;;10.70;96.40;;;;;;5094762;28;20019;-49
2024/01/04 01:10:15;;;;;;;5.00;1.38;;;10.70;96.50;;;;;;5129754;28;20532;-50
2024/01/04 01:12:41;;;;;;;5.20;0.95;;;10.70;96.50;;;;;;5111765;28;20024;-49
2024/01/04 01:15:07;;;;;;;4.68;1.30;;;10.70;96.60;;;;;;5111405;28;20091;-50
2024/01/04 01:17:32;;;;;;;2.55;0.90;;;10.60;96.60;;;;;;5111794;28;20107;-49
2024/01/04 01:19:58;;;;;;;2.85;0.70;;;10.60;96.60;;;;;;5129642;28;20032;-50
2024/01/04 01:22:24;;;;;;;6.22;0.88;;;10.60;96.70;;;;;;5111499;28;20023;-50
2024/01/04 01:24:50;;;;;;;5.72;1.27;;;10.60;96.70;;;;;;5129685;28;20041;-50
2024/01/04 01:27:15;;;;;;;6.05;0.88;;;10.60;96.70;;;;;;5111167;28;20035;-49
2024/01/04 01:29:41;;;;;;;2.75;0.88;;;10.60;96.80;;;;;;5094138;28;20028;-50
2024/01/04 01:32:07;;;;;;;6.43;1.00;;;10.60;96.80;;;;;;5111397;28;20620;-49
2024/01/04 01:34:33;;;;;;;3.17;1.10;;;10.60;96.80;;;;;;5111106;28;20055;-50
2024/01/04 01:36:58;;;;;;;4.55;0.95;;;10.60;96.90;;;;;;5129452;28;20028;-50
2024/01/04 01:39:25;;;;;;;2.88;1.10;;;10.60;96.90;;;;;;5111138;28;20049;-50
2024/01/04 01:41:51;;;;;;;4.78;0.95;;;10.60;97.00;;;;;;5129301;28;20023;-49
2024/01/04 01:44:17;;;;;;;4.00;0.70;;;10.60;97.00;;;;;;5111144;28;20043;-50
2024/01/04 01:46:43;;;;;;;5.65;1.10;;;10.50;97.10;;;;;;5110786;28;20028;-49
2024/01/04 01:49:09;;;;;;;3.13;1.08;;;10.50;97.10;;;;;;5110945;28;20027;-49
2024/01/04 01:51:35;;;;;;;1.70;0.90;;;10.50;97.10;;;;;;5110727;28;20053;-50
2024/01/04 01:54:00;;;;;;;2.33;0.90;;;10.50;97.10;;;;;;5110777;28;20028;-50
2024/01/04 01:56:26;;;;;;;2.00;0.68;;;10.50;97.20;;;;;;5110806;28;20023;-50
2024/01/04 01:58:51;;;;;;;1.75;0.70;;;10.50;97.20;;;;;;5110708;28;20386;-50
2024/01/04 02:01:17;;;;;;;3.40;0.73;;;10.40;97.20;;;;;;5110567;28;20035;-49
2024/01/04 02:03:43;;;;;;;3.05;0.70;;;10.40;97.20;;;;;;5110596;28;20113;-50
2024/01/04 02:06:08;;;;;;;1.30;0.55;;;10.40;97.20;;;;;;5092839;28;20028;-50
2024/01/04 02:08:34;;;;;;;3.88;0.93;;;10.30;97.20;;;;;;5128747;28;20417;-49
2024/01/04 02:10:59;;;;;;;2.80;1.13;;;10.40;97.50;;;;;;5110353;28;20087;-50
2024/01/04 02:13:25;;;;;;;1.35;0.50;;;10.30;97.20;;;;;;5128742;28;20053;-49
2024/01/04 02:15:51;;;;;;;3.85;0.50;;;10.30;97.20;;;;;;5128708;28;20023;-49
2024/01/04 02:18:16;;;;;;;2.60;0.68;;;10.30;97.30;;;;;;5128639;28;20475;-49
2024/01/04 02:20:42;;;;;;;2.95;0.68;;;10.30;97.30;;;;;;5110220;28;20028;-50
2024/01/04 02:23:13;;;;;;;2.58;0.80;;;10.20;97.30;;;;;;5110047;28;20103;-50
2024/01/04 02:25:39;;;;;;;1.77;0.60;;;10.20;97.40;;;;;;5111041;28;20032;-50
2024/01/04 02:28:04;;;;;;;1.90;0.70;;;10.20;97.40;;;;;;5128340;28;20080;-50
2024/01/04 02:30:30;;;;;;;3.90;0.50;;;10.20;97.50;;;;;;5128340;28;20491;-49
2024/01/04 02:32:56;;;;;;;1.77;0.65;;;10.20;97.50;;;;;;5128307;28;20024;-50
2024/01/04 02:35:21;;;;;;;0.93;0.43;;;10.20;97.60;;;;;;5109848;28;20042;-50
2024/01/04 02:37:47;;;;;;;1.58;0.55;;;10.20;97.60;;;;;;5128146;28;20097;-49
2024/01/04 02:40:12;;;;;;;1.30;0.40;;;10.10;97.70;;;;;;5109901;28;20441;-50
2024/01/04 02:42:38;;;;;;;2.72;0.70;;;10.10;97.70;;;;;;5128120;28;20024;-50
2024/01/04 02:45:04;;;;;;;1.75;0.52;;;10.10;97.80;;;;;;5109637;28;20039;-50
2024/01/04 02:47:29;;;;;;;1.55;0.50;;;10.10;97.90;;;;;;5127717;28;20027;-50
2024/01/04 02:49:55;;;;;;;1.55;0.50;;;10.10;97.80;;;;;;5109792;28;20024;-49
2024/01/04 02:52:21;;;;;;;1.13;0.40;;;10.10;97.90;;;;;;5127748;28;20510;-49
2024/01/04 02:54:46;;;;;;;1.52;0.68;;;10.10;97.90;;;;;;5127915;28;20051;-50
2024/01/04 02:57:12;;;;;;;1.70;0.70;;;10.10;97.90;;;;;;5109619;28;20019;-49
2024/01/04 02:59:37;;;;;;;2.25;0.60;;;10.10;97.90;;;;;;5109475;28;20033;-50
2024/01/04 03:02:03;;;;;;;1.77;0.50;;;10.10;97.90;;;;;;5127728;28;20019;-50
2024/01/04 03:04:28;;;;;;;4.45;0.80;;;10.10;98.00;;;;;;5127665;28;20046;-50
2024/01/04 03:06:54;;;;;;;2.70;0.63;;;10.10;98.00;;;;;;5127396;28;20035;-50
2024/01/04 03:09:20;;;;;;;1.55;0.43;;;10.10;98.10;;;;;;5127724;28;20041;-49
2024/01/04 03:11:46;;;;;;;3.40;0.80;;;10.00;98.10;;;;;;5109325;28;20023;-50
2024/01/04 03:14:11;;;;;;;2.00;0.68;;;10.00;98.10;;;;;;5127504;28;20053;-49
2024/01/04 03:16:37;;;;;;;2.10;0.75;;;10.00;98.10;;;;;;5126363;28;20035;-50
2024/01/04 03:19:02;;;;;;;1.25;0.50;;;10.00;98.10;;;;;;5109183;28;20053;-50
2024/01/04 03:21:28;;;;;;;1.35;0.52;;;10.00;98.10;;;;;;5127304;28;20028;-50
2024/01/04 03:23:53;;;;;;;2.22;0.70;;;10.00;98.20;;;;;;5109160;28;20028;-49
2024/01/04 03:26:19;;;;;;;5.30;0.85;;;10.00;98.20;;;;;;5127282;28;20031;-50
2024/01/04 03:28:45;;;;;;;2.45;0.80;;;10.00;98.20;;;;;;5109136;28;20073;-49
2024/01/04 03:31:10;;;;;;;2.97;0.55;;;10.00;98.30;;;;;;5127205;28;20099;-49
2024/01/04 03:33:36;;;;;;;1.13;0.55;;;9.90;98.30;;;;;;5108978;28;20024;-49
2024/01/04 03:36:01;;;;;;;2.13;0.55;;;9.90;98.30;;;;;;5126945;28;20031;-50
2024/01/04 03:38:27;;;;;;;2.80;0.70;;;9.90;98.30;;;;;;5127195;28;20470;-49
2024/01/04 03:40:53;;;;;;;3.88;0.70;;;9.90;98.30;;;;;;5127133;28;20038;-50
2024/01/04 03:43:18;;;;;;;2.42;0.65;;;9.90;98.30;;;;;;5092228;28;20020;-50
2024/01/04 03:45:44;;;;;;;3.53;0.80;;;9.90;98.40;;;;;;5109155;28;20027;-50
2024/01/04 03:48:09;;;;;;;1.60;0.60;;;9.90;98.40;;;;;;5108761;28;20028;-49
2024/01/04 03:50:35;;;;;;;1.88;0.68;;;9.90;98.40;;;;;;5108840;28;20028;-50
2024/01/04 03:53:00;;;;;;;1.75;0.68;;;9.90;98.40;;;;;;5108752;28;20026;-50
2024/01/04 03:55:26;;;;;;;2.45;0.73;;;9.90;98.50;;;;;;5127032;28;20429;-50
2024/01/04 03:57:52;;;;;;;1.77;0.73;;;9.90;98.60;;;;;;5091623;28;20101;-50
2024/01/04 04:00:18;;;;;;;2.45;0.82;;;9.90;98.70;;;;;;5108637;28;20032;-50
2024/01/04 04:02:44;;;;;;;4.15;0.70;;;9.90;98.80;;;;;;5108880;28;20034;-50
2024/01/04 04:05:10;;;;;;;2.28;0.88;;;9.90;98.80;;;;;;5126867;28;20044;-50
2024/01/04 04:07:35;;;;;;;1.95;0.63;;;9.90;98.90;;;;;;5108480;28;20048;-49
2024/01/04 04:10:02;;;;;;;2.80;0.82;;;9.80;99.00;;;;;;5108615;28;20122;-50
2024/01/04 04:12:27;;;;;;;1.88;0.80;;;9.80;99.10;;;;;;5126621;28;20055;-49
2024/01/04 04:14:53;;;;;;;2.15;0.77;;;9.80;99.10;;;;;;5108564;28;20471;-50
2024/01/04 04:17:20;;;;;;;3.20;0.88;;;9.90;99.20;;;;;;5126577;28;20028;-50
2024/01/04 04:19:46;;;;;;;1.50;0.70;;;9.80;99.30;;;;;;5126843;28;20510;-49
2024/01/04 04:22:11;;;;;;;1.90;0.57;;;9.80;99.30;;;;;;5108321;28;20031;-50
2024/01/04 04:24:37;;;;;;;2.05;0.70;;;9.80;99.30;;;;;;5126710;28;20472;-49
2024/01/04 04:27:03;;;;;;;4.38;0.85;;;9.80;99.30;;;;;;5126847;28;20024;-49
2024/01/04 04:29:28;;;;;;;4.03;1.08;;;9.80;99.40;;;;;;5129973;28;20108;-50
2024/01/04 04:31:55;;;;;;;1.45;0.57;;;9.80;99.40;;;;;;5112267;28;20024;-49
2024/01/04 04:34:20;;;;;;;2.88;0.70;;;9.80;99.40;;;;;;5112334;28;20027;-49
2024/01/04 04:36:46;;;;;;;2.78;0.93;;;9.80;99.40;;;;;;5112348;28;20058;-50
2024/01/04 04:39:12;;;;;;;3.25;0.95;;;9.80;99.50;;;;;;5130391;28;20106;-49
2024/01/04 04:41:39;;;;;;;1.83;1.00;;;9.80;99.50;;;;;;5112197;28;20031;-49
2024/01/04 04:44:04;;;;;;;2.33;0.98;;;9.80;99.50;;;;;;5112269;28;20095;-49
2024/01/04 04:46:30;;;;;;;4.07;0.90;;;9.70;99.60;;;;;;5130388;28;20043;-49
2024/01/04 04:48:56;;;;;;;1.92;0.68;;;9.80;99.60;;;;;;5130460;28;20058;-50
2024/01/04 04:51:25;;;;;;;2.40;0.80;;;9.80;99.60;;;;;;5129998;28;20079;-50
2024/01/04 04:53:51;;;;;;;2.20;0.60;;;9.80;99.60;;;;;;5112386;28;20047;-49
2024/01/04 04:56:17;;;;;;;1.25;0.70;;;9.70;99.50;;;;;;5111949;28;20032;-50
2024/01/04 04:58:43;;;;;;;2.08;0.85;;;9.70;99.60;;;;;;5111609;28;20041;-49
2024/01/04 05:01:08;;;;;;;2.20;0.80;;;9.70;99.60;;;;;;5111705;28;20028;-50
2024/01/04 05:03:35;;;;;;;2.88;1.10;;;9.70;99.60;;;;;;5129949;28;20120;-49
2024/01/04 05:06:01;;;;;;;2.67;0.93;;;9.70;99.60;;;;;;5129904;28;20036;-50
2024/01/04 05:08:26;;;;;;;2.20;0.80;;;9.70;99.60;;;;;;5129935;28;20035;-50
2024/01/04 05:10:52;;;;;;;2.88;0.95;;;9.70;99.60;;;;;;5129842;28;20019;-50
2024/01/04 05:13:17;;;;;;;3.20;1.17;;;9.70;99.60;;;;;;5111447;28;20510;-49
2024/01/04 05:15:43;;;;;;;4.93;1.33;;;9.80;99.50;;;;;;5129585;28;20095;-49
2024/01/04 05:18:09;;;;;;;6.78;0.95;;;9.70;99.50;;;;;;5111213;28;20019;-49
2024/01/04 05:20:35;;;;;;;4.72;1.05;;;9.80;99.40;;;;;;5111463;28;20467;-49
2024/01/04 05:23:00;;;;;;;8.07;1.10;;;9.70;99.40;;;;;;5129527;28;20032;-49
2024/01/04 05:25:26;;;;;;;8.90;1.20;;;9.80;99.40;;;;;;5129378;28;20031;-49
2024/01/04 05:27:51;;;;;;;6.78;1.10;;;9.80;99.40;;;;;;5111078;28;20043;-50
2024/01/04 05:30:17;;;;;;;4.53;1.30;;;9.70;99.40;;;;;;5111148;28;20483;-50
2024/01/04 05:32:43;;;;;;;3.88;0.95;;;9.70;99.30;;;;;;5129272;28;20023;-49
2024/01/04 05:35:09;;;;;;;4.28;1.20;;;9.70;99.30;;;;;;5110934;28;20031;-50
2024/01/04 05:37:35;;;;;;;4.75;1.23;;;9.70;99.20;;;;;;5129136;28;20058;-50
2024/01/04 05:40:01;;;;;;;5.68;1.50;;;9.70;99.20;;;;;;5128319;28;20035;-49
2024/01/04 05:42:27;;;;;;;10.50;1.95;;;9.70;99.20;;;;;;5111145;28;20035;-50
2024/01/04 05:44:52;;;;;;;10.23;1.70;;;9.70;99.20;;;;;;5110613;28;20031;-50
2024/01/04 05:47:18;;;;;;;9.77;1.95;;;9.80;99.20;;;;;;5120743;28;20024;-49
2024/01/04 05:49:44;;;;;;;11.07;1.73;;;9.70;99.20;;;;;;5107601;28;20050;-49
2024/01/04 05:52:09;;;;;;;5.43;1.55;;;9.70;99.30;;;;;;5108279;28;20032;-50
2024/01/04 05:54:35;;;;;;;4.90;1.48;;;9.80;99.20;;;;;;5107856;28;20048;-49
2024/01/04 05:57:00;;;;;;;7.85;1.60;;;9.70;99.20;;;;;;5124286;28;20035;-49
2024/01/04 05:59:26;;;;;;;13.93;2.15;;;9.80;99.20;;;;;;5108469;28;20039;-50
2024/01/04 06:01:51;;;;;;;15.70;2.47;;;9.70;99.20;;;;;;5108370;28;20384;-49
2024/01/04 06:04:17;;;;;;;13.95;2.10;;;9.70;99.30;;;;;;5123848;28;20032;-50
2024/01/04 06:06:43;;;;;;;15.35;2.17;;;9.80;99.20;;;;;;5107985;28;20034;-49
2024/01/04 06:09:09;;;;;;;15.60;2.30;;;9.70;99.10;;;;;;5089252;28;20047;-50
2024/01/04 06:11:38;;;;;;;17.23;2.60;;;9.80;99.20;;;;;;5108243;28;20028;-50
2024/01/04 06:14:06;;;;;;;13.02;2.50;;;9.80;99.00;;;;;;5099592;28;20028;-49
2024/01/04 06:16:32;;;;;;;21.30;2.90;;;9.80;99.00;;;;;;5070172;28;20035;-50
2024/01/04 06:18:58;;;;;;;20.98;3.25;;;9.70;99.00;;;;;;5089564;28;20087;-49
2024/01/04 06:21:23;;;;;;;28.30;4.13;;;9.80;99.10;;;;;;5107665;28;20058;-50
2024/01/04 06:23:50;;;;;;;29.35;3.90;;;9.70;99.20;;;;;;5107547;28;20039;-50
2024/01/04 06:26:19;;;;;;;36.97;3.80;;;9.80;99.30;;;;;;5089404;28;20040;-50
2024/01/04 06:28:45;;;;;;;20.90;4.25;;;9.80;99.30;;;;;;5069371;28;20048;-50
2024/01/04 06:31:11;;;;;;;30.15;5.22;;;9.80;99.40;;;;;;5104247;28;20027;-50
2024/01/04 06:33:36;;;;;;;35.72;4.40;;;9.80;99.50;;;;;;5107165;28;20031;-50
2024/01/04 06:36:02;;;;;;;30.73;4.60;;;9.80;99.60;;;;;;5106084;28;20036;-49
2024/01/04 06:38:28;;;;;;;29.08;3.70;;;9.80;99.70;;;;;;5106736;28;20040;-49
2024/01/04 06:40:57;;;;;;;33.63;4.90;;;9.80;99.60;;;;;;5089385;28;20028;-50
2024/01/04 06:43:23;;;;;;;40.55;5.47;;;9.80;99.60;;;;;;5069411;28;20495;-50
2024/01/04 06:45:49;;;;;;;41.63;6.07;;;9.70;99.70;;;;;;5102330;28;20039;-49
2024/01/04 06:48:14;;;;;;;33.20;5.07;;;9.80;99.90;;;;;;5123772;28;20022;-50
2024/01/04 06:50:40;;;;;;;31.33;4.78;;;9.70;99.80;;;;;;5102802;28;20020;-50
2024/01/04 06:53:06;;;;;;;33.13;5.32;;;9.80;99.80;;;;;;5093119;28;20031;-50
2024/01/04 06:55:32;;;;;;;33.13;5.40;;;9.80;99.90;;;;;;5106729;28;20020;-50
2024/01/04 06:57:58;;;;;;;32.50;5.97;;;9.80;99.90;;;;;;5106967;28;20118;-50
2024/01/04 07:00:23;;;;;;;42.38;5.72;;;9.80;99.90;;;;;;5089049;28;20028;-50
2024/01/04 07:02:49;;;;;;;29.77;5.18;;;9.80;99.90;;;;;;5107113;28;20035;-50
2024/01/04 07:05:14;;;;;;;30.13;5.32;;;9.80;99.90;;;;;;5106831;28;20055;-50
2024/01/04 07:07:40;;;;;;;49.75;6.38;;;9.80;99.90;;;;;;5106559;28;20529;-50
2024/01/04 07:10:06;;;;;;;35.97;4.63;;;9.80;99.90;;;;;;5087451;28;20031;-49
2024/01/04 07:12:32;;;;;;;33.92;5.03;;;9.80;99.90;;;;;;5088176;28;20511;-50
2024/01/04 07:14:57;;;;;;;27.23;4.88;;;9.80;99.90;;;;;;5088743;28;20028;-50
2024/01/04 07:17:23;;;;;;;31.55;4.32;;;9.80;99.90;;;;;;5106985;28;20020;-50
2024/01/04 07:19:49;;;;;;;30.48;4.78;;;9.80;99.90;;;;;;5088409;28;20020;-49
2024/01/04 07:22:15;;;;;;;23.15;4.55;;;9.80;99.80;;;;;;5088997;28;20031;-49
2024/01/04 07:24:41;;;;;;;30.85;4.15;;;9.70;99.70;;;;;;5104776;28;20028;-49
2024/01/04 07:27:07;;;;;;;28.83;3.92;;;9.70;99.70;;;;;;5136947;27;20027;-49
2024/01/04 07:29:33;;;;;;;23.58;4.70;;;9.70;99.70;;;;;;5105201;28;20030;-49
2024/01/04 07:31:58;;;;;;;28.70;4.53;;;9.80;99.70;;;;;;5106154;28;20023;-50
2024/01/04 07:34:24;;;;;;;25.70;4.50;;;9.70;99.80;;;;;;5125585;28;20083;-49
2024/01/04 07:36:50;;;;;;;23.58;4.28;;;9.80;99.80;;;;;;5126854;28;20535;-50
2024/01/04 07:39:15;;;;;;;22.88;3.85;;;9.80;99.80;;;;;;5126083;28;20050;-50
2024/01/04 07:41:43;;;;;;;28.92;4.88;;;9.70;99.60;;;;;;5124159;28;20024;-50
2024/01/04 07:44:08;;;;;;;32.47;4.32;;;9.80;99.70;;;;;;5124550;28;20036;-50
2024/01/04 07:46:34;;;;;;;42.00;5.25;;;9.80;99.90;;;;;;5102525;28;20024;-49
2024/01/04 07:48:59;;;;;;;30.90;5.05;;;9.80;99.70;;;;;;5098239;28;20023;-50
2024/01/04 07:51:25;;;;;;;106.20;9.65;;;9.80;99.60;;;;;;5086272;28;20494;-50
2024/01/04 07:53:51;;;;;;;53.35;6.75;;;9.80;99.80;;;;;;5133927;27;20023;-50
2024/01/04 07:56:16;;;;;;;50.45;5.22;;;9.80;99.80;;;;;;5109918;28;20431;-49
2024/01/04 07:58:42;;;;;;;52.53;6.47;;;9.80;99.70;;;;;;5112763;28;20024;-50
2024/01/04 08:01:08;;;;;;;43.88;5.18;;;9.80;99.90;;;;;;5115138;28;20039;-49
2024/01/04 08:03:33;;;;;;;59.92;6.35;;;9.80;99.80;;;;;;5103835;28;20095;-50
2024/01/04 08:05:59;;;;;;;30.13;4.60;;;9.80;99.80;;;;;;5086529;28;20060;-50
2024/01/04 08:08:27;;;;;;;38.53;4.85;;;9.80;99.70;;;;;;5121626;28;20040;-49
2024/01/04 08:10:53;;;;;;;31.48;4.35;;;9.80;99.60;;;;;;5107930;28;20031;-50
2024/01/04 08:13:18;;;;;;;17.85;3.90;;;9.80;99.50;;;;;;5103713;28;20383;-49
2024/01/04 08:15:44;;;;;;;19.23;2.78;;;9.80;99.50;;;;;;5107601;28;20080;-49
2024/01/04 08:18:10;;;;;;;27.60;3.90;;;9.80;99.50;;;;;;5108826;28;20052;-49
2024/01/04 08:20:35;;;;;;;30.70;4.32;;;9.80;99.40;;;;;;5104097;28;20083;-49
2024/01/04 08:23:01;;;;;;;31.15;4.25;;;9.80;99.40;;;;;;5104170;28;20054;-50
2024/01/04 08:25:27;;;;;;;25.08;3.60;;;9.80;99.50;;;;;;5113475;28;20031;-50
2024/01/04 08:27:53;;;;;;;39.80;5.40;;;9.80;99.50;;;;;;5092118;28;20055;-50
2024/01/04 08:30:19;;;;;;;57.13;7.30;;;9.80;99.50;;;;;;5091570;28;20069;-50
2024/01/04 08:32:44;;;;;;;22.67;4.32;;;9.80;99.50;;;;;;5120746;28;20396;-50
2024/01/04 08:35:10;;;;;;;40.75;5.30;;;9.80;99.80;;;;;;5087757;28;20080;-50
2024/01/04 08:37:35;;;;;;;80.80;8.60;;;9.80;99.60;;;;;;5110434;28;20512;-49
2024/01/04 08:40:01;;;;;;;116.75;12.52;;;9.80;99.60;;;;;;5113765;28;20027;-49
2024/01/04 08:42:26;;;;;;;73.30;7.75;;;9.80;99.70;;;;;;5104136;28;20044;-50
2024/01/04 08:44:53;;;;;;;89.28;7.68;;;9.80;99.60;;;;;;5092051;28;20506;-49
2024/01/04 08:47:18;;;;;;;29.77;4.28;;;9.80;99.60;;;;;;5122938;28;20034;-50
2024/01/04 08:49:44;;;;;;;27.48;3.83;;;9.80;99.60;;;;;;5102817;28;20084;-49
2024/01/04 08:52:10;;;;;;;32.50;4.95;;;9.80;99.60;;;;;;5106034;28;20428;-49
2024/01/04 08:54:35;;;;;;;35.42;3.92;;;9.80;99.60;;;;;;5090868;28;20046;-49
2024/01/04 08:57:01;;;;;;;38.67;4.43;;;9.80;99.60;;;;;;5113649;28;20027;-50
2024/01/04 08:59:26;;;;;;;37.50;5.00;;;9.90;99.60;;;;;;5114500;28;20099;-50
2024/01/04 09:01:52;;;;;;;73.28;7.65;;;9.90;99.70;;;;;;5086246;28;20035;-50
2024/01/04 09:04:20;;;;;;;50.75;6.50;;;9.90;99.70;;;;;;5085328;28;20037;-50
2024/01/04 09:06:45;;;;;;;55.50;6.13;;;9.90;99.70;;;;;;5103905;28;20038;-50
2024/01/04 09:09:11;;;;;;;44.80;5.43;;;9.90;99.80;;;;;;5107525;28;20048;-50
2024/01/04 09:11:39;;;;;;;28.15;4.15;;;9.90;99.80;;;;;;5114492;28;20028;-50
2024/01/04 09:14:07;;;;;;;35.95;3.80;;;9.80;99.80;;;;;;5109009;28;20031;-50
2024/01/04 09:16:34;;;;;;;37.03;5.20;;;9.90;99.90;;;;;;5095749;28;20036;-50
2024/01/04 09:19:00;;;;;;;51.28;5.20;;;9.90;99.90;;;;;;5104448;28;20114;-50
2024/01/04 09:21:26;;;;;;;49.08;5.72;;;9.90;99.90;;;;;;5115864;28;20119;-50
2024/01/04 09:23:52;;;;;;;32.22;4.72;;;9.90;99.90;;;;;;5078588;28;20086;-50
2024/01/04 09:26:18;;;;;;;31.73;4.78;;;9.90;99.90;;;;;;5098137;28;20039;-49
2024/01/04 09:28:44;;;;;;;42.10;5.20;;;9.90;99.90;;;;;;5118991;28;20122;-50
2024/01/04 09:31:09;;;;;;;56.45;5.88;;;9.90;99.90;;;;;;5126738;28;20024;-50
2024/01/04 09:33:35;;;;;;;36.63;4.43;;;9.90;99.90;;;;;;5108241;28;20078;-50
2024/01/04 09:36:00;;;;;;;30.58;3.67;;;10.00;99.90;;;;;;5095846;28;20039;-49
2024/01/04 09:38:27;;;;;;;49.63;5.28;;;9.90;99.90;;;;;;5099057;28;20020;-50
2024/01/04 09:40:56;;;;;;;44.50;6.63;;;10.00;99.90;;;;;;5115852;27;20029;-49
2024/01/04 09:43:22;;;;;;;44.75;5.05;;;9.90;99.90;;;;;;5103839;28;20024;-49
2024/01/04 09:45:47;;;;;;;27.17;4.53;;;10.00;99.90;;;;;;5121872;28;20058;-49
2024/01/04 09:48:13;;;;;;;39.90;5.78;;;10.00;99.90;;;;;;5085864;28;20024;-50
2024/01/04 09:50:39;;;;;;;36.90;5.35;;;10.00;99.90;;;;;;5104807;28;20448;-49
2024/01/04 09:53:05;;;;;;;28.05;4.45;;;10.00;99.90;;;;;;5088033;28;20035;-49
2024/01/04 09:55:31;;;;;;;42.42;4.75;;;10.10;99.90;;;;;;5115637;28;20024;-49
2024/01/04 09:57:56;;;;;;;37.28;5.05;;;10.00;99.90;;;;;;5097939;28;20042;-50
2024/01/04 10:00:22;;;;;;;41.17;5.65;;;10.10;99.90;;;;;;5100122;28;20510;-49
2024/01/04 10:02:49;;;;;;;46.08;6.03;;;10.10;99.90;;;;;;5109795;28;20035;-50
2024/01/04 10:05:15;;;;;;;22.10;4.57;;;10.00;99.90;;;;;;5096887;28;20036;-50
2024/01/04 10:07:51;;;;;;;66.78;6.40;;;10.10;99.90;;;;;;5107019;28;20068;-50
2024/01/04 10:10:21;;;;;;;58.00;5.80;;;10.10;99.90;;;;;;5093349;28;20031;-49
2024/01/04 10:12:47;;;;;;;43.20;4.93;;;10.10;99.90;;;;;;5096151;28;20039;-50
2024/01/04 10:15:15;;;;;;;45.55;6.05;;;10.10;99.90;;;;;;5072250;28;20036;-49
2024/01/04 10:17:41;;;;;;;51.70;6.43;;;10.10;99.90;;;;;;5088304;28;20468;-50
2024/01/04 10:20:08;;;;;;;29.17;5.00;;;10.10;99.90;;;;;;5095641;28;20036;-50
2024/01/04 10:22:33;;;;;;;52.28;5.30;;;10.10;99.90;;;;;;5114887;28;20088;-49
2024/01/04 10:25:07;;;;;;;34.03;5.80;;;10.10;99.90;;;;;;5095132;28;20036;-50
2024/01/04 10:27:32;;;;;;;61.10;6.45;;;10.20;99.90;;;;;;5107101;28;20020;-50
2024/01/04 10:30:05;;;;;;;36.22;5.47;;;10.20;99.90;;;;;;5124005;28;20063;-50
2024/01/04 10:32:31;;;;;;;51.17;5.47;;;10.20;99.90;;;;;;5099068;28;20057;-50
2024/01/04 10:35:06;;;;;;;29.73;4.82;;;10.20;99.90;;;;;;5101957;28;20509;-49
2024/01/04 10:37:32;;;;;;;46.90;6.47;;;10.20;99.90;;;;;;5121136;28;20016;-50
2024/01/04 10:40:00;;;;;;;39.97;5.72;;;10.20;99.90;;;;;;5123096;28;20036;-49
2024/01/04 10:42:26;;;;;;;53.95;6.60;;;10.20;99.90;;;;;;5089676;28;20035;-50
2024/01/04 10:44:52;;;;;;;82.03;9.35;;;10.20;99.90;;;;;;5107865;28;20047;-50
2024/01/04 10:47:18;;;;;;;70.60;8.88;;;10.20;99.90;;;;;;5104308;28;20074;-49
2024/01/04 10:49:46;;;;;;;52.13;7.40;;;10.20;99.90;;;;;;5116171;28;20468;-50
2024/01/04 10:52:16;;;;;;;49.08;5.65;;;10.20;99.90;;;;;;5122607;27;20448;-49
2024/01/04 10:54:42;;;;;;;41.05;6.00;;;10.30;99.90;;;;;;5127528;28;20019;-50
2024/01/04 10:57:08;;;;;;;40.08;5.97;;;10.30;99.90;;;;;;5115654;28;20039;-50
2024/01/04 10:59:33;;;;;;;52.95;6.05;;;10.30;99.90;;;;;;5088948;28;20036;-50
2024/01/04 11:01:59;;;;;;;48.65;6.35;;;10.20;99.90;;;;;;5072817;28;20039;-49
2024/01/04 11:04:25;;;;;;;58.65;5.50;;;10.30;99.90;;;;;;5123155;27;20100;-49
2024/01/04 11:06:52;;;;;;;43.95;5.07;;;10.30;99.90;;;;;;5108303;28;20028;-50
2024/01/04 11:09:21;;;;;;;46.65;5.55;;;10.30;99.90;;;;;;5110098;28;20055;-50
2024/01/04 11:11:53;;;;;;;47.33;5.68;;;10.30;99.80;;;;;;5091150;28;20028;-50
2024/01/04 11:14:23;;;;;;;29.50;3.58;;;10.30;99.70;;;;;;5107775;28;20033;-50
2024/01/04 11:17:04;;;;;;;38.65;4.95;;;10.30;99.50;;;;;;5087733;28;20040;-50
2024/01/04 11:19:56;;;;;;;30.35;6.13;;;10.30;99.50;;;;;;5111339;28;20049;-50
2024/01/04 11:22:37;;;;;;;54.92;6.82;;;10.30;99.30;;;;;;5104984;28;20127;-50
2024/01/04 11:25:28;;;;;;;56.38;6.78;;;10.30;99.70;;;;;;5104226;28;20620;-50
2024/01/04 11:27:54;;;;;;;37.00;4.75;;;10.40;99.70;;;;;;5118701;27;20057;-50
2024/01/04 11:30:19;;;;;;;38.08;5.47;;;10.40;99.60;;;;;;5088095;28;20024;-50
2024/01/04 11:32:45;;;;;;;41.20;5.10;;;10.40;99.30;;;;;;5113067;27;20032;-50
2024/01/04 11:35:11;;;;;;;39.35;4.50;;;10.40;99.10;;;;;;5100326;28;20028;-50
2024/01/04 11:37:36;;;;;;;46.42;4.78;;;10.40;99.20;;;;;;5092749;28;20052;-50
2024/01/04 11:40:07;;;;;;;37.22;5.10;;;10.40;99.20;;;;;;5122197;27;20039;-50
2024/01/04 11:42:38;;;;;;;28.30;4.63;;;10.40;99.20;;;;;;5096289;28;20032;-50
2024/01/04 11:45:06;;;;;;;26.40;3.42;;;10.50;99.20;;;;;;5107277;28;20456;-50
2024/01/04 11:47:38;;;;;;;30.33;3.72;;;10.50;99.00;;;;;;5106331;28;20020;-50
2024/01/04 11:50:14;;;;;;;40.17;4.63;;;10.50;98.90;;;;;;5096993;28;20035;-50
2024/01/04 11:52:40;;;;;;;22.30;3.88;;;10.50;98.80;;;;;;5104535;28;20028;-50
2024/01/04 11:55:06;;;;;;;38.80;4.30;;;10.50;98.60;;;;;;5083336;28;20028;-50
2024/01/04 11:57:31;;;;;;;43.03;3.85;;;10.50;98.60;;;;;;5112314;28;20028;-50
2024/01/04 11:59:57;;;;;;;23.73;3.17;;;10.50;98.70;;;;;;5087820;28;20030;-50
2024/01/04 12:02:22;;;;;;;14.88;3.45;;;10.50;98.70;;;;;;5104520;28;20027;-49
2024/01/04 12:04:48;;;;;;;27.42;3.53;;;10.50;98.40;;;;;;5086936;28;20057;-50
2024/01/04 12:07:14;;;;;;;33.83;3.80;;;10.50;98.20;;;;;;5073404;28;20052;-50
2024/01/04 12:09:40;;;;;;;37.70;3.95;;;10.50;98.00;;;;;;5089778;28;20074;-50
2024/01/04 12:12:08;;;;;;;24.52;3.83;;;10.50;97.90;;;;;;5074590;28;20048;-50
2024/01/04 12:14:37;;;;;;;32.00;3.22;;;10.50;97.90;;;;;;5092142;28;20028;-50
2024/01/04 12:17:03;;;;;;;51.70;6.45;;;10.50;97.80;;;;;;5091748;28;20058;-50
2024/01/04 12:19:28;;;;;;;37.15;5.30;;;10.50;97.70;;;;;;5082763;28;20032;-50
2024/01/04 12:21:55;;;;;;;37.78;4.85;;;10.50;97.90;;;;;;5099376;28;20040;-50
2024/01/04 12:24:20;;;;;;;40.22;4.78;;;10.60;97.80;;;;;;5079632;28;20020;-50
2024/01/04 12:26:46;;;;;;;72.28;6.82;;;10.50;97.70;;;;;;5088397;28;20385;-50
2024/01/04 12:29:12;;;;;;;84.93;8.57;;;10.50;97.70;;;;;;5090793;28;20017;-50
2024/01/04 12:31:42;;;;;;;40.45;4.88;;;10.60;97.50;;;;;;5118995;28;20086;-50
2024/01/04 12:34:09;;;;;;;31.85;3.88;;;10.60;97.40;;;;;;5089609;28;20028;-50
2024/01/04 12:36:35;;;;;;;31.02;4.15;;;10.60;97.10;;;;;;5091734;28;20032;-50
2024/01/04 12:39:15;;;;;;;35.03;4.18;;;10.60;97.10;;;;;;5092675;28;20455;-50
2024/01/04 12:41:44;;;;;;;42.50;4.18;;;10.60;97.20;;;;;;5072457;28;20111;-50